sensor_id;sensor_type;location;lat;lon;timestamp;P1;durP1;ratioP1;P2;durP2;ratioP2
6223;SDS011;3145;42.726;23.342;2023-03-21T00:02:02;25.63;;;19.07;;
6223;SDS011;3145;42.726;23.342;2023-03-21T00:04:30;37.10;;;19.13;;
6223;SDS011;3145;42.726;23.342;2023-03-21T00:06:57;22.63;;;17.83;;
6223;SDS011;3145;42.726;23.342;2023-03-21T00:09:24;19.07;;;16.33;;
6223;SDS011;3145;42.726;23.342;2023-03-21T00:11:51;43.23;;;18.97;;
6223;SDS011;3145;42.726;23.342;2023-03-21T00:14:18;60.33;;;19.53;;
6223;SDS011;3145;42.726;23.342;2023-03-21T00:16:45;44.03;;;18.97;;
6223;SDS011;3145;42.726;23.342;2023-03-21T00:19:14;32.23;;;18.57;;
6223;SDS011;3145;42.726;23.342;2023-03-21T00:21:43;27.50;;;18.33;;
6223;SDS011;3145;42.726;23.342;2023-03-21T00:24:10;24.20;;;16.67;;
6223;SDS011;3145;42.726;23.342;2023-03-21T00:26:37;25.80;;;17.17;;
6223;SDS011;3145;42.726;23.342;2023-03-21T00:29:04;26.90;;;17.77;;
6223;SDS011;3145;42.726;23.342;2023-03-21T00:31:31;27.33;;;18.33;;
6223;SDS011;3145;42.726;23.342;2023-03-21T00:33:58;26.03;;;17.50;;
6223;SDS011;3145;42.726;23.342;2023-03-21T00:36:26;22.07;;;16.67;;
6223;SDS011;3145;42.726;23.342;2023-03-21T00:38:54;21.60;;;15.67;;
6223;SDS011;3145;42.726;23.342;2023-03-21T00:41:21;22.73;;;16.10;;
6223;SDS011;3145;42.726;23.342;2023-03-21T00:43:48;22.00;;;14.87;;
6223;SDS011;3145;42.726;23.342;2023-03-21T00:46:16;21.57;;;14.63;;
6223;SDS011;3145;42.726;23.342;2023-03-21T00:48:42;17.07;;;13.50;;
6223;SDS011;3145;42.726;23.342;2023-03-21T00:51:10;15.20;;;12.83;;
6223;SDS011;3145;42.726;23.342;2023-03-21T00:53:39;17.10;;;13.20;;
6223;SDS011;3145;42.726;23.342;2023-03-21T00:56:08;20.00;;;14.73;;
6223;SDS011;3145;42.726;23.342;2023-03-21T00:58:35;18.17;;;15.43;;
6223;SDS011;3145;42.726;23.342;2023-03-21T01:01:02;18.33;;;14.87;;
6223;SDS011;3145;42.726;23.342;2023-03-21T01:03:32;21.23;;;14.90;;
6223;SDS011;3145;42.726;23.342;2023-03-21T01:06:06;23.40;;;15.77;;
6223;SDS011;3145;42.726;23.342;2023-03-21T01:08:38;32.30;;;19.07;;
6223;SDS011;3145;42.726;23.342;2023-03-21T01:11:08;24.93;;;18.40;;
6223;SDS011;3145;42.726;23.342;2023-03-21T01:13:37;28.57;;;18.30;;
6223;SDS011;3145;42.726;23.342;2023-03-21T01:16:04;27.13;;;17.80;;
6223;SDS011;3145;42.726;23.342;2023-03-21T01:18:34;29.47;;;19.60;;
6223;SDS011;3145;42.726;23.342;2023-03-21T01:21:05;27.13;;;20.40;;
6223;SDS011;3145;42.726;23.342;2023-03-21T01:23:33;29.50;;;20.10;;
6223;SDS011;3145;42.726;23.342;2023-03-21T01:26:00;30.20;;;20.63;;
6223;SDS011;3145;42.726;23.342;2023-03-21T01:28:28;31.70;;;22.10;;
6223;SDS011;3145;42.726;23.342;2023-03-21T01:30:56;35.77;;;22.87;;
6223;SDS011;3145;42.726;23.342;2023-03-21T01:33:22;30.87;;;20.93;;
6223;SDS011;3145;42.726;23.342;2023-03-21T01:35:49;33.00;;;23.10;;
6223;SDS011;3145;42.726;23.342;2023-03-21T01:38:16;32.70;;;22.77;;
6223;SDS011;3145;42.726;23.342;2023-03-21T01:40:43;31.77;;;22.03;;
6223;SDS011;3145;42.726;23.342;2023-03-21T01:46:09;36.33;;;23.07;;
6223;SDS011;3145;42.726;23.342;2023-03-21T01:48:49;32.67;;;22.63;;
6223;SDS011;3145;42.726;23.342;2023-03-21T01:51:20;37.33;;;22.27;;
6223;SDS011;3145;42.726;23.342;2023-03-21T01:53:49;35.13;;;23.13;;
6223;SDS011;3145;42.726;23.342;2023-03-21T01:56:17;30.53;;;22.13;;
6223;SDS011;3145;42.726;23.342;2023-03-21T01:58:51;36.37;;;23.27;;
6223;SDS011;3145;42.726;23.342;2023-03-21T02:01:21;32.90;;;22.90;;
6223;SDS011;3145;42.726;23.342;2023-03-21T02:03:48;30.50;;;21.83;;
6223;SDS011;3145;42.726;23.342;2023-03-21T02:06:19;31.73;;;21.40;;
6223;SDS011;3145;42.726;23.342;2023-03-21T02:08:54;34.03;;;23.93;;
6223;SDS011;3145;42.726;23.342;2023-03-21T02:11:22;29.47;;;21.10;;
6223;SDS011;3145;42.726;23.342;2023-03-21T02:13:52;30.07;;;20.63;;
6223;SDS011;3145;42.726;23.342;2023-03-21T02:16:21;30.40;;;21.00;;
6223;SDS011;3145;42.726;23.342;2023-03-21T02:18:59;31.67;;;20.80;;
6223;SDS011;3145;42.726;23.342;2023-03-21T02:21:41;31.30;;;19.73;;
6223;SDS011;3145;42.726;23.342;2023-03-21T02:24:35;35.70;;;21.40;;
6223;SDS011;3145;42.726;23.342;2023-03-21T02:27:20;33.30;;;21.90;;
6223;SDS011;3145;42.726;23.342;2023-03-21T02:32:51;32.83;;;21.60;;
6223;SDS011;3145;42.726;23.342;2023-03-21T02:35:39;28.87;;;20.87;;
6223;SDS011;3145;42.726;23.342;2023-03-21T02:38:30;28.07;;;20.33;;
6223;SDS011;3145;42.726;23.342;2023-03-21T02:41:03;28.97;;;21.17;;
6223;SDS011;3145;42.726;23.342;2023-03-21T02:43:36;30.00;;;21.53;;
6223;SDS011;3145;42.726;23.342;2023-03-21T02:46:09;28.50;;;20.40;;
6223;SDS011;3145;42.726;23.342;2023-03-21T02:48:42;31.50;;;21.37;;
6223;SDS011;3145;42.726;23.342;2023-03-21T02:51:13;29.90;;;22.73;;
6223;SDS011;3145;42.726;23.342;2023-03-21T02:53:46;28.13;;;21.47;;
6223;SDS011;3145;42.726;23.342;2023-03-21T02:56:16;31.50;;;22.67;;
6223;SDS011;3145;42.726;23.342;2023-03-21T02:58:45;33.73;;;22.33;;
6223;SDS011;3145;42.726;23.342;2023-03-21T03:01:13;34.00;;;22.73;;
6223;SDS011;3145;42.726;23.342;2023-03-21T03:03:40;30.67;;;22.27;;
6223;SDS011;3145;42.726;23.342;2023-03-21T03:06:08;34.60;;;24.20;;
6223;SDS011;3145;42.726;23.342;2023-03-21T03:08:46;31.70;;;22.33;;
6223;SDS011;3145;42.726;23.342;2023-03-21T03:11:23;37.93;;;22.57;;
6223;SDS011;3145;42.726;23.342;2023-03-21T03:13:56;30.87;;;22.40;;
6223;SDS011;3145;42.726;23.342;2023-03-21T03:16:33;28.80;;;21.10;;
6223;SDS011;3145;42.726;23.342;2023-03-21T03:19:07;28.37;;;21.90;;
6223;SDS011;3145;42.726;23.342;2023-03-21T03:21:41;28.37;;;21.37;;
6223;SDS011;3145;42.726;23.342;2023-03-21T03:24:14;28.40;;;21.53;;
6223;SDS011;3145;42.726;23.342;2023-03-21T03:26:46;36.20;;;22.47;;
6223;SDS011;3145;42.726;23.342;2023-03-21T03:29:19;35.57;;;23.03;;
6223;SDS011;3145;42.726;23.342;2023-03-21T03:31:47;37.67;;;23.63;;
6223;SDS011;3145;42.726;23.342;2023-03-21T03:34:21;32.00;;;22.27;;
6223;SDS011;3145;42.726;23.342;2023-03-21T03:36:52;30.07;;;21.33;;
6223;SDS011;3145;42.726;23.342;2023-03-21T03:39:26;35.77;;;21.57;;
6223;SDS011;3145;42.726;23.342;2023-03-21T03:41:58;30.40;;;21.43;;
6223;SDS011;3145;42.726;23.342;2023-03-21T03:44:29;31.23;;;21.37;;
6223;SDS011;3145;42.726;23.342;2023-03-21T03:46:57;33.70;;;22.00;;
6223;SDS011;3145;42.726;23.342;2023-03-21T03:49:28;32.33;;;20.43;;
6223;SDS011;3145;42.726;23.342;2023-03-21T03:52:00;28.87;;;20.30;;
6223;SDS011;3145;42.726;23.342;2023-03-21T03:54:35;36.33;;;20.80;;
6223;SDS011;3145;42.726;23.342;2023-03-21T03:57:04;29.70;;;20.07;;
6223;SDS011;3145;42.726;23.342;2023-03-21T03:59:33;28.47;;;19.23;;
6223;SDS011;3145;42.726;23.342;2023-03-21T04:02:01;29.27;;;20.10;;
6223;SDS011;3145;42.726;23.342;2023-03-21T04:04:28;28.33;;;19.67;;
6223;SDS011;3145;42.726;23.342;2023-03-21T04:06:55;29.07;;;19.93;;
6223;SDS011;3145;42.726;23.342;2023-03-21T04:09:23;28.63;;;20.20;;
6223;SDS011;3145;42.726;23.342;2023-03-21T04:11:54;27.37;;;20.50;;
6223;SDS011;3145;42.726;23.342;2023-03-21T04:14:21;31.77;;;20.40;;
6223;SDS011;3145;42.726;23.342;2023-03-21T04:16:48;32.70;;;21.43;;
6223;SDS011;3145;42.726;23.342;2023-03-21T04:19:16;36.77;;;21.83;;
6223;SDS011;3145;42.726;23.342;2023-03-21T04:21:43;32.43;;;22.20;;
6223;SDS011;3145;42.726;23.342;2023-03-21T04:24:11;49.80;;;27.13;;
6223;SDS011;3145;42.726;23.342;2023-03-21T04:26:39;46.97;;;26.43;;
6223;SDS011;3145;42.726;23.342;2023-03-21T04:29:07;48.20;;;31.70;;
6223;SDS011;3145;42.726;23.342;2023-03-21T04:31:34;60.77;;;38.33;;
6223;SDS011;3145;42.726;23.342;2023-03-21T04:34:01;67.90;;;40.67;;
6223;SDS011;3145;42.726;23.342;2023-03-21T04:36:33;50.37;;;33.17;;
6223;SDS011;3145;42.726;23.342;2023-03-21T04:39:03;78.57;;;36.50;;
6223;SDS011;3145;42.726;23.342;2023-03-21T04:41:36;68.10;;;38.00;;
6223;SDS011;3145;42.726;23.342;2023-03-21T04:44:03;57.40;;;32.77;;
6223;SDS011;3145;42.726;23.342;2023-03-21T04:46:31;56.17;;;31.63;;
6223;SDS011;3145;42.726;23.342;2023-03-21T04:48:58;48.57;;;32.60;;
6223;SDS011;3145;42.726;23.342;2023-03-21T04:51:25;47.40;;;31.27;;
6223;SDS011;3145;42.726;23.342;2023-03-21T04:53:52;60.17;;;31.77;;
6223;SDS011;3145;42.726;23.342;2023-03-21T04:56:21;54.80;;;30.47;;
6223;SDS011;3145;42.726;23.342;2023-03-21T04:58:54;56.30;;;35.67;;
6223;SDS011;3145;42.726;23.342;2023-03-21T05:01:21;119.33;;;59.90;;
6223;SDS011;3145;42.726;23.342;2023-03-21T05:03:51;77.47;;;42.03;;
6223;SDS011;3145;42.726;23.342;2023-03-21T05:06:17;71.33;;;39.40;;
6223;SDS011;3145;42.726;23.342;2023-03-21T05:08:44;59.03;;;35.40;;
6223;SDS011;3145;42.726;23.342;2023-03-21T05:11:11;62.50;;;35.97;;
6223;SDS011;3145;42.726;23.342;2023-03-21T05:13:38;66.97;;;35.27;;
6223;SDS011;3145;42.726;23.342;2023-03-21T05:16:06;57.67;;;36.67;;
6223;SDS011;3145;42.726;23.342;2023-03-21T05:18:33;57.50;;;37.13;;
6223;SDS011;3145;42.726;23.342;2023-03-21T05:21:04;65.40;;;36.23;;
6223;SDS011;3145;42.726;23.342;2023-03-21T05:23:34;52.00;;;31.70;;
6223;SDS011;3145;42.726;23.342;2023-03-21T05:26:02;56.07;;;32.87;;
6223;SDS011;3145;42.726;23.342;2023-03-21T05:28:30;59.13;;;35.93;;
6223;SDS011;3145;42.726;23.342;2023-03-21T05:31:00;51.93;;;35.30;;
6223;SDS011;3145;42.726;23.342;2023-03-21T05:33:27;68.37;;;40.20;;
6223;SDS011;3145;42.726;23.342;2023-03-21T05:35:53;60.80;;;37.83;;
6223;SDS011;3145;42.726;23.342;2023-03-21T05:38:21;61.10;;;37.63;;
6223;SDS011;3145;42.726;23.342;2023-03-21T05:40:48;58.90;;;37.13;;
6223;SDS011;3145;42.726;23.342;2023-03-21T05:43:16;75.97;;;36.60;;
6223;SDS011;3145;42.726;23.342;2023-03-21T05:45:42;66.77;;;38.93;;
6223;SDS011;3145;42.726;23.342;2023-03-21T05:48:09;72.00;;;40.93;;
6223;SDS011;3145;42.726;23.342;2023-03-21T05:50:37;65.50;;;44.10;;
6223;SDS011;3145;42.726;23.342;2023-03-21T05:53:04;78.63;;;46.27;;
6223;SDS011;3145;42.726;23.342;2023-03-21T05:55:32;73.87;;;45.03;;
6223;SDS011;3145;42.726;23.342;2023-03-21T05:57:59;69.43;;;43.43;;
6223;SDS011;3145;42.726;23.342;2023-03-21T06:00:26;67.53;;;42.80;;
6223;SDS011;3145;42.726;23.342;2023-03-21T06:02:53;66.07;;;42.77;;
6223;SDS011;3145;42.726;23.342;2023-03-21T06:05:20;65.83;;;39.23;;
6223;SDS011;3145;42.726;23.342;2023-03-21T06:07:47;60.50;;;37.33;;
6223;SDS011;3145;42.726;23.342;2023-03-21T06:10:13;69.87;;;38.67;;
6223;SDS011;3145;42.726;23.342;2023-03-21T06:12:42;67.77;;;41.70;;
6223;SDS011;3145;42.726;23.342;2023-03-21T06:15:09;48.93;;;32.77;;
6223;SDS011;3145;42.726;23.342;2023-03-21T06:17:36;58.60;;;35.70;;
6223;SDS011;3145;42.726;23.342;2023-03-21T06:20:04;49.17;;;31.90;;
6223;SDS011;3145;42.726;23.342;2023-03-21T06:22:32;57.23;;;32.40;;
6223;SDS011;3145;42.726;23.342;2023-03-21T06:25:00;53.23;;;32.93;;
6223;SDS011;3145;42.726;23.342;2023-03-21T06:27:27;62.53;;;34.00;;
6223;SDS011;3145;42.726;23.342;2023-03-21T06:29:55;45.30;;;29.73;;
6223;SDS011;3145;42.726;23.342;2023-03-21T06:32:23;52.27;;;29.37;;
6223;SDS011;3145;42.726;23.342;2023-03-21T06:34:49;61.47;;;30.63;;
6223;SDS011;3145;42.726;23.342;2023-03-21T06:37:16;57.10;;;34.17;;
6223;SDS011;3145;42.726;23.342;2023-03-21T06:39:43;69.87;;;43.73;;
6223;SDS011;3145;42.726;23.342;2023-03-21T06:42:11;29.27;;;21.73;;
6223;SDS011;3145;42.726;23.342;2023-03-21T06:44:38;25.33;;;16.37;;
6223;SDS011;3145;42.726;23.342;2023-03-21T06:47:06;20.33;;;14.33;;
6223;SDS011;3145;42.726;23.342;2023-03-21T06:49:33;19.13;;;11.27;;
6223;SDS011;3145;42.726;23.342;2023-03-21T06:51:59;14.63;;;11.13;;
6223;SDS011;3145;42.726;23.342;2023-03-21T06:54:26;12.13;;;10.97;;
6223;SDS011;3145;42.726;23.342;2023-03-21T06:56:53;17.67;;;13.30;;
6223;SDS011;3145;42.726;23.342;2023-03-21T06:59:20;17.50;;;13.07;;
6223;SDS011;3145;42.726;23.342;2023-03-21T07:01:47;16.53;;;13.23;;
6223;SDS011;3145;42.726;23.342;2023-03-21T07:04:15;21.83;;;14.17;;
6223;SDS011;3145;42.726;23.342;2023-03-21T07:06:42;20.27;;;15.50;;
6223;SDS011;3145;42.726;23.342;2023-03-21T07:09:09;20.27;;;14.57;;
6223;SDS011;3145;42.726;23.342;2023-03-21T07:11:36;27.47;;;16.53;;
6223;SDS011;3145;42.726;23.342;2023-03-21T07:14:03;27.80;;;16.70;;
6223;SDS011;3145;42.726;23.342;2023-03-21T07:16:30;29.67;;;16.53;;
6223;SDS011;3145;42.726;23.342;2023-03-21T07:18:57;20.37;;;14.80;;
6223;SDS011;3145;42.726;23.342;2023-03-21T07:21:25;27.10;;;16.13;;
6223;SDS011;3145;42.726;23.342;2023-03-21T07:23:52;22.70;;;15.43;;
6223;SDS011;3145;42.726;23.342;2023-03-21T07:26:19;30.47;;;16.43;;
6223;SDS011;3145;42.726;23.342;2023-03-21T07:28:46;26.17;;;15.73;;
6223;SDS011;3145;42.726;23.342;2023-03-21T07:31:14;32.00;;;19.53;;
6223;SDS011;3145;42.726;23.342;2023-03-21T07:33:43;27.57;;;18.10;;
6223;SDS011;3145;42.726;23.342;2023-03-21T07:36:13;63.67;;;35.57;;
6223;SDS011;3145;42.726;23.342;2023-03-21T07:38:42;46.27;;;25.57;;
6223;SDS011;3145;42.726;23.342;2023-03-21T07:41:09;39.27;;;24.37;;
6223;SDS011;3145;42.726;23.342;2023-03-21T07:43:36;34.40;;;20.77;;
6223;SDS011;3145;42.726;23.342;2023-03-21T07:46:03;51.73;;;30.27;;
6223;SDS011;3145;42.726;23.342;2023-03-21T07:48:30;40.37;;;23.70;;
6223;SDS011;3145;42.726;23.342;2023-03-21T07:50:57;37.53;;;22.80;;
6223;SDS011;3145;42.726;23.342;2023-03-21T07:53:25;35.07;;;24.53;;
6223;SDS011;3145;42.726;23.342;2023-03-21T07:55:53;29.43;;;20.27;;
6223;SDS011;3145;42.726;23.342;2023-03-21T07:58:20;26.10;;;18.67;;
6223;SDS011;3145;42.726;23.342;2023-03-21T08:00:47;30.77;;;18.13;;
6223;SDS011;3145;42.726;23.342;2023-03-21T08:03:14;33.63;;;19.50;;
6223;SDS011;3145;42.726;23.342;2023-03-21T08:05:41;36.27;;;18.47;;
6223;SDS011;3145;42.726;23.342;2023-03-21T08:08:09;35.43;;;19.47;;
6223;SDS011;3145;42.726;23.342;2023-03-21T08:10:36;30.50;;;19.27;;
6223;SDS011;3145;42.726;23.342;2023-03-21T08:13:04;30.77;;;20.77;;
6223;SDS011;3145;42.726;23.342;2023-03-21T08:15:31;33.87;;;21.43;;
6223;SDS011;3145;42.726;23.342;2023-03-21T08:17:58;35.80;;;22.73;;
6223;SDS011;3145;42.726;23.342;2023-03-21T08:20:25;32.13;;;19.53;;
6223;SDS011;3145;42.726;23.342;2023-03-21T08:22:52;27.20;;;20.53;;
6223;SDS011;3145;42.726;23.342;2023-03-21T08:25:20;34.37;;;20.47;;
6223;SDS011;3145;42.726;23.342;2023-03-21T08:27:48;36.83;;;19.50;;
6223;SDS011;3145;42.726;23.342;2023-03-21T08:30:18;30.60;;;20.13;;
6223;SDS011;3145;42.726;23.342;2023-03-21T08:32:46;42.10;;;23.00;;
6223;SDS011;3145;42.726;23.342;2023-03-21T08:35:14;31.10;;;15.60;;
6223;SDS011;3145;42.726;23.342;2023-03-21T08:37:42;27.03;;;15.57;;
6223;SDS011;3145;42.726;23.342;2023-03-21T08:40:10;21.93;;;14.97;;
6223;SDS011;3145;42.726;23.342;2023-03-21T08:42:38;21.60;;;14.27;;
6223;SDS011;3145;42.726;23.342;2023-03-21T08:45:06;26.73;;;14.67;;
6223;SDS011;3145;42.726;23.342;2023-03-21T08:47:36;23.00;;;14.80;;
6223;SDS011;3145;42.726;23.342;2023-03-21T08:50:03;22.17;;;12.97;;
6223;SDS011;3145;42.726;23.342;2023-03-21T08:52:32;17.83;;;12.83;;
6223;SDS011;3145;42.726;23.342;2023-03-21T08:54:59;22.70;;;14.57;;
6223;SDS011;3145;42.726;23.342;2023-03-21T08:57:26;23.07;;;13.13;;
6223;SDS011;3145;42.726;23.342;2023-03-21T08:59:53;18.83;;;13.77;;
6223;SDS011;3145;42.726;23.342;2023-03-21T09:02:20;22.20;;;13.53;;
6223;SDS011;3145;42.726;23.342;2023-03-21T09:04:49;30.07;;;15.20;;
6223;SDS011;3145;42.726;23.342;2023-03-21T09:07:18;19.40;;;14.33;;
6223;SDS011;3145;42.726;23.342;2023-03-21T09:09:46;19.80;;;13.80;;
6223;SDS011;3145;42.726;23.342;2023-03-21T09:12:16;26.63;;;13.60;;
6223;SDS011;3145;42.726;23.342;2023-03-21T09:14:43;20.00;;;13.87;;
6223;SDS011;3145;42.726;23.342;2023-03-21T09:17:10;20.97;;;14.63;;
6223;SDS011;3145;42.726;23.342;2023-03-21T09:19:36;16.57;;;12.17;;
6223;SDS011;3145;42.726;23.342;2023-03-21T09:22:05;20.77;;;12.27;;
6223;SDS011;3145;42.726;23.342;2023-03-21T09:24:41;24.90;;;12.10;;
6223;SDS011;3145;42.726;23.342;2023-03-21T09:27:10;20.97;;;12.60;;
6223;SDS011;3145;42.726;23.342;2023-03-21T09:29:38;20.50;;;13.10;;
6223;SDS011;3145;42.726;23.342;2023-03-21T09:32:05;21.80;;;14.67;;
6223;SDS011;3145;42.726;23.342;2023-03-21T09:34:32;20.33;;;15.20;;
6223;SDS011;3145;42.726;23.342;2023-03-21T09:37:01;19.20;;;14.67;;
6223;SDS011;3145;42.726;23.342;2023-03-21T09:39:35;20.00;;;15.10;;
6223;SDS011;3145;42.726;23.342;2023-03-21T09:42:06;28.93;;;18.07;;
6223;SDS011;3145;42.726;23.342;2023-03-21T09:44:45;19.57;;;14.93;;
6223;SDS011;3145;42.726;23.342;2023-03-21T09:47:24;30.93;;;16.00;;
6223;SDS011;3145;42.726;23.342;2023-03-21T09:50:00;25.00;;;16.40;;
6223;SDS011;3145;42.726;23.342;2023-03-21T09:52:31;26.13;;;14.40;;
6223;SDS011;3145;42.726;23.342;2023-03-21T09:55:11;18.90;;;15.03;;
6223;SDS011;3145;42.726;23.342;2023-03-21T09:57:44;27.27;;;16.27;;
6223;SDS011;3145;42.726;23.342;2023-03-21T10:00:15;24.33;;;15.03;;
6223;SDS011;3145;42.726;23.342;2023-03-21T10:02:50;28.13;;;15.30;;
6223;SDS011;3145;42.726;23.342;2023-03-21T10:05:19;20.23;;;15.40;;
6223;SDS011;3145;42.726;23.342;2023-03-21T10:07:50;28.30;;;16.27;;
6223;SDS011;3145;42.726;23.342;2023-03-21T10:10:24;23.83;;;16.33;;
6223;SDS011;3145;42.726;23.342;2023-03-21T10:12:53;29.27;;;17.07;;
6223;SDS011;3145;42.726;23.342;2023-03-21T10:15:22;25.20;;;16.33;;
6223;SDS011;3145;42.726;23.342;2023-03-21T10:17:52;32.17;;;20.03;;
6223;SDS011;3145;42.726;23.342;2023-03-21T10:20:23;27.13;;;17.23;;
6223;SDS011;3145;42.726;23.342;2023-03-21T10:22:52;29.53;;;15.90;;
6223;SDS011;3145;42.726;23.342;2023-03-21T10:25:23;20.93;;;14.83;;
6223;SDS011;3145;42.726;23.342;2023-03-21T10:27:55;22.13;;;14.43;;
6223;SDS011;3145;42.726;23.342;2023-03-21T10:30:27;20.87;;;14.87;;
6223;SDS011;3145;42.726;23.342;2023-03-21T10:33:01;27.93;;;15.53;;
6223;SDS011;3145;42.726;23.342;2023-03-21T10:35:30;22.27;;;13.87;;
6223;SDS011;3145;42.726;23.342;2023-03-21T10:38:00;23.33;;;13.50;;
6223;SDS011;3145;42.726;23.342;2023-03-21T10:40:29;26.47;;;15.43;;
6223;SDS011;3145;42.726;23.342;2023-03-21T10:42:58;26.00;;;14.33;;
6223;SDS011;3145;42.726;23.342;2023-03-21T10:45:43;17.70;;;11.50;;
6223;SDS011;3145;42.726;23.342;2023-03-21T10:48:11;17.70;;;11.03;;
6223;SDS011;3145;42.726;23.342;2023-03-21T10:50:38;35.20;;;11.07;;
6223;SDS011;3145;42.726;23.342;2023-03-21T10:53:10;15.57;;;11.80;;
6223;SDS011;3145;42.726;23.342;2023-03-21T10:55:44;16.77;;;11.03;;
6223;SDS011;3145;42.726;23.342;2023-03-21T10:58:14;13.07;;;11.13;;
6223;SDS011;3145;42.726;23.342;2023-03-21T11:00:49;22.83;;;11.43;;
6223;SDS011;3145;42.726;23.342;2023-03-21T11:03:22;18.40;;;12.30;;
6223;SDS011;3145;42.726;23.342;2023-03-21T11:05:56;15.77;;;10.30;;
6223;SDS011;3145;42.726;23.342;2023-03-21T11:08:28;17.83;;;12.20;;
6223;SDS011;3145;42.726;23.342;2023-03-21T11:11:01;13.37;;;10.97;;
6223;SDS011;3145;42.726;23.342;2023-03-21T11:13:32;19.30;;;11.00;;
6223;SDS011;3145;42.726;23.342;2023-03-21T11:16:04;13.40;;;9.57;;
6223;SDS011;3145;42.726;23.342;2023-03-21T11:18:33;14.03;;;10.17;;
6223;SDS011;3145;42.726;23.342;2023-03-21T11:21:06;8.27;;;7.47;;
6223;SDS011;3145;42.726;23.342;2023-03-21T11:23:37;14.17;;;8.60;;
6223;SDS011;3145;42.726;23.342;2023-03-21T11:26:10;11.73;;;9.17;;
6223;SDS011;3145;42.726;23.342;2023-03-21T11:28:42;12.97;;;8.30;;
6223;SDS011;3145;42.726;23.342;2023-03-21T11:31:09;12.37;;;7.80;;
6223;SDS011;3145;42.726;23.342;2023-03-21T11:33:37;13.13;;;7.70;;
6223;SDS011;3145;42.726;23.342;2023-03-21T11:36:23;10.33;;;7.43;;
6223;SDS011;3145;42.726;23.342;2023-03-21T11:38:59;8.07;;;7.27;;
6223;SDS011;3145;42.726;23.342;2023-03-21T11:41:40;10.00;;;7.53;;
6223;SDS011;3145;42.726;23.342;2023-03-21T11:44:22;10.27;;;7.73;;
6223;SDS011;3145;42.726;23.342;2023-03-21T11:46:52;8.43;;;7.70;;
6223;SDS011;3145;42.726;23.342;2023-03-21T11:49:19;11.40;;;8.20;;
6223;SDS011;3145;42.726;23.342;2023-03-21T11:51:47;11.63;;;8.30;;
6223;SDS011;3145;42.726;23.342;2023-03-21T11:54:24;9.83;;;8.23;;
6223;SDS011;3145;42.726;23.342;2023-03-21T11:56:59;13.03;;;9.90;;
6223;SDS011;3145;42.726;23.342;2023-03-21T11:59:35;29.67;;;19.97;;
6223;SDS011;3145;42.726;23.342;2023-03-21T12:05:02;9.17;;;7.87;;
6223;SDS011;3145;42.726;23.342;2023-03-21T12:07:41;12.40;;;10.27;;
6223;SDS011;3145;42.726;23.342;2023-03-21T12:10:30;11.20;;;8.30;;
6223;SDS011;3145;42.726;23.342;2023-03-21T12:13:06;11.33;;;8.03;;
6223;SDS011;3145;42.726;23.342;2023-03-21T12:15:45;9.80;;;7.80;;
6223;SDS011;3145;42.726;23.342;2023-03-21T12:18:24;16.77;;;12.87;;
6223;SDS011;3145;42.726;23.342;2023-03-21T12:21:02;8.23;;;5.90;;
6223;SDS011;3145;42.726;23.342;2023-03-21T12:23:43;6.87;;;6.20;;
6223;SDS011;3145;42.726;23.342;2023-03-21T12:26:22;7.40;;;6.60;;
6223;SDS011;3145;42.726;23.342;2023-03-21T12:29:06;10.60;;;6.50;;
6223;SDS011;3145;42.726;23.342;2023-03-21T12:31:51;8.07;;;7.27;;
6223;SDS011;3145;42.726;23.342;2023-03-21T12:34:34;6.47;;;5.93;;
6223;SDS011;3145;42.726;23.342;2023-03-21T12:37:21;7.90;;;7.10;;
6223;SDS011;3145;42.726;23.342;2023-03-21T12:39:51;9.27;;;6.03;;
6223;SDS011;3145;42.726;23.342;2023-03-21T12:42:44;6.17;;;5.50;;
6223;SDS011;3145;42.726;23.342;2023-03-21T12:45:25;8.50;;;7.43;;
6223;SDS011;3145;42.726;23.342;2023-03-21T12:47:57;9.23;;;6.73;;
6223;SDS011;3145;42.726;23.342;2023-03-21T12:50:30;10.17;;;6.43;;
6223;SDS011;3145;42.726;23.342;2023-03-21T12:53:04;10.23;;;5.80;;
6223;SDS011;3145;42.726;23.342;2023-03-21T12:55:50;10.00;;;6.30;;
6223;SDS011;3145;42.726;23.342;2023-03-21T12:58:18;8.43;;;6.57;;
6223;SDS011;3145;42.726;23.342;2023-03-21T13:00:50;6.97;;;5.63;;
6223;SDS011;3145;42.726;23.342;2023-03-21T13:03:20;7.93;;;5.80;;
6223;SDS011;3145;42.726;23.342;2023-03-21T13:05:51;7.73;;;5.67;;
6223;SDS011;3145;42.726;23.342;2023-03-21T13:08:23;10.27;;;6.43;;
6223;SDS011;3145;42.726;23.342;2023-03-21T13:10:53;7.10;;;6.30;;
6223;SDS011;3145;42.726;23.342;2023-03-21T13:13:22;8.33;;;5.73;;
6223;SDS011;3145;42.726;23.342;2023-03-21T13:16:07;6.90;;;5.87;;
6223;SDS011;3145;42.726;23.342;2023-03-21T13:21:36;10.00;;;7.50;;
6223;SDS011;3145;42.726;23.342;2023-03-21T13:24:16;11.37;;;6.43;;
6223;SDS011;3145;42.726;23.342;2023-03-21T13:26:49;6.50;;;5.90;;
6223;SDS011;3145;42.726;23.342;2023-03-21T13:29:21;7.23;;;5.90;;
6223;SDS011;3145;42.726;23.342;2023-03-21T13:31:52;5.77;;;5.23;;
6223;SDS011;3145;42.726;23.342;2023-03-21T13:34:21;7.37;;;6.00;;
6223;SDS011;3145;42.726;23.342;2023-03-21T13:36:49;7.77;;;6.30;;
6223;SDS011;3145;42.726;23.342;2023-03-21T13:39:17;12.03;;;7.17;;
6223;SDS011;3145;42.726;23.342;2023-03-21T13:41:46;6.67;;;5.97;;
6223;SDS011;3145;42.726;23.342;2023-03-21T13:44:24;8.03;;;7.23;;
6223;SDS011;3145;42.726;23.342;2023-03-21T13:47:00;7.90;;;6.80;;
6223;SDS011;3145;42.726;23.342;2023-03-21T13:49:30;6.73;;;5.83;;
6223;SDS011;3145;42.726;23.342;2023-03-21T13:51:59;11.10;;;6.27;;
6223;SDS011;3145;42.726;23.342;2023-03-21T13:54:28;6.50;;;5.90;;
6223;SDS011;3145;42.726;23.342;2023-03-21T13:57:34;7.43;;;5.17;;
6223;SDS011;3145;42.726;23.342;2023-03-21T14:00:14;7.07;;;5.40;;
6223;SDS011;3145;42.726;23.342;2023-03-21T14:02:56;9.13;;;5.80;;
6223;SDS011;3145;42.726;23.342;2023-03-21T14:05:25;6.77;;;6.10;;
6223;SDS011;3145;42.726;23.342;2023-03-21T14:07:54;9.43;;;6.60;;
6223;SDS011;3145;42.726;23.342;2023-03-21T14:10:25;10.83;;;6.93;;
6223;SDS011;3145;42.726;23.342;2023-03-21T14:12:56;19.17;;;9.73;;
6223;SDS011;3145;42.726;23.342;2023-03-21T14:15:35;13.07;;;7.87;;
6223;SDS011;3145;42.726;23.342;2023-03-21T14:18:05;6.20;;;5.60;;
6223;SDS011;3145;42.726;23.342;2023-03-21T14:20:33;5.43;;;4.93;;
6223;SDS011;3145;42.726;23.342;2023-03-21T14:23:02;9.30;;;6.33;;
6223;SDS011;3145;42.726;23.342;2023-03-21T14:25:31;5.60;;;5.07;;
6223;SDS011;3145;42.726;23.342;2023-03-21T14:28:02;6.07;;;5.57;;
6223;SDS011;3145;42.726;23.342;2023-03-21T14:30:32;7.80;;;6.20;;
6223;SDS011;3145;42.726;23.342;2023-03-21T14:33:03;6.10;;;5.60;;
6223;SDS011;3145;42.726;23.342;2023-03-21T14:35:40;6.20;;;5.50;;
6223;SDS011;3145;42.726;23.342;2023-03-21T14:38:07;8.37;;;5.70;;
6223;SDS011;3145;42.726;23.342;2023-03-21T14:40:45;7.10;;;6.57;;
6223;SDS011;3145;42.726;23.342;2023-03-21T14:43:13;7.30;;;6.57;;
6223;SDS011;3145;42.726;23.342;2023-03-21T14:45:40;8.30;;;6.87;;
6223;SDS011;3145;42.726;23.342;2023-03-21T14:48:09;6.70;;;6.03;;
6223;SDS011;3145;42.726;23.342;2023-03-21T14:50:39;7.47;;;6.17;;
6223;SDS011;3145;42.726;23.342;2023-03-21T14:53:10;10.23;;;7.20;;
6223;SDS011;3145;42.726;23.342;2023-03-21T14:55:42;16.07;;;7.00;;
6223;SDS011;3145;42.726;23.342;2023-03-21T14:58:11;7.50;;;6.90;;
6223;SDS011;3145;42.726;23.342;2023-03-21T15:00:39;9.37;;;8.30;;
6223;SDS011;3145;42.726;23.342;2023-03-21T15:03:06;10.53;;;8.70;;
6223;SDS011;3145;42.726;23.342;2023-03-21T15:05:35;12.43;;;10.40;;
6223;SDS011;3145;42.726;23.342;2023-03-21T15:08:06;22.97;;;11.73;;
6223;SDS011;3145;42.726;23.342;2023-03-21T15:10:34;21.47;;;14.03;;
6223;SDS011;3145;42.726;23.342;2023-03-21T15:13:11;18.73;;;10.33;;